Time;durP1;ratioP1;P1;durP2;ratioP2;P2;SDS_P1;SDS_P2;PMS_P1;PMS_P2;Temp;Humidity;BMP_temperature;BMP_pressure;BME280_temperature;BME280_humidity;BME280_pressure;Samples;Min_cycle;Max_cycle;Signal;HPM_P1;HPM_P2
2023/01/07 00:01:08;;;;;;;5.37;1.90;;;;;;;24.79;38.01;99792.44;1858525;76;28096;-48
2023/01/07 00:03:58;;;;;;;6.28;2.08;;;;;;;24.83;37.96;99782.66;1833936;77;28230;-47
2023/01/07 00:06:49;;;;;;;6.60;2.20;;;;;;;24.83;37.99;99779.92;1851154;76;28136;-47
2023/01/07 00:09:37;;;;;;;5.70;2.03;;;;;;;24.83;37.98;99768.92;1846926;76;28220;-44
2023/01/07 00:12:26;;;;;;;4.70;2.17;;;;;;;24.82;37.96;99772.73;1861690;76;28073;-46
2023/01/07 00:15:14;;;;;;;6.53;2.30;;;;;;;24.85;37.96;99768.14;1864969;76;28209;-47
2023/01/07 00:18:02;;;;;;;5.23;2.03;;;;;;;24.87;37.94;99765.98;1867715;76;28168;-44
2023/01/07 00:20:51;;;;;;;5.30;2.40;;;;;;;24.85;37.94;99766.23;1879018;76;28138;-48
2023/01/07 00:23:42;;;;;;;3.02;2.22;;;;;;;24.85;37.93;99766.23;1860737;76;28215;-44
2023/01/07 00:26:33;;;;;;;7.62;2.27;;;;;;;24.86;37.92;99761.55;1878021;75;28104;-49
2023/01/07 00:29:21;;;;;;;7.70;2.20;;;;;;;24.88;37.92;99756.67;1872705;76;28105;-45
2023/01/07 00:32:11;;;;;;;7.90;2.70;;;;;;;24.86;37.94;99752.77;1880402;76;28071;-46
2023/01/07 00:34:59;;;;;;;4.67;1.92;;;;;;;24.90;37.92;99753.14;1858195;76;28106;-47
2023/01/07 00:37:50;;;;;;;3.47;2.17;;;;;;;24.89;37.90;99748.70;1873783;76;29132;-44
2023/01/07 00:40:38;;;;;;;4.10;1.87;;;;;;;24.89;37.91;99741.84;1880475;75;28085;-46
2023/01/07 00:43:27;;;;;;;6.80;2.25;;;;;;;24.92;37.91;99738.61;1880166;75;28179;-48
2023/01/07 00:46:15;;;;;;;5.87;2.23;;;;;;;24.90;37.88;99737.45;1859215;76;28161;-44
2023/01/07 00:49:04;;;;;;;7.62;2.25;;;;;;;24.89;37.89;99737.19;1873147;76;28649;-46
2023/01/07 00:51:53;;;;;;;5.78;2.10;;;;;;;24.89;37.92;99732.22;1879782;76;28115;-48
2023/01/07 00:54:42;;;;;;;6.47;2.10;;;;;;;24.93;37.88;99727.89;1863295;76;28116;-45
2023/01/07 00:57:31;;;;;;;4.93;2.10;;;;;;;24.92;37.87;99721.59;1857559;76;28257;-44
2023/01/07 01:00:22;;;;;;;7.05;2.00;;;;;;;24.92;37.89;99720.75;1867013;76;28689;-44
2023/01/07 01:03:12;;;;;;;4.97;1.87;;;;;;;24.89;37.99;99721.23;1866316;76;28179;-46
2023/01/07 01:06:06;;;;;;;5.58;2.00;;;;;;;24.83;38.06;99713.97;1866714;75;28144;-43
2023/01/07 01:08:54;;;;;;;4.37;2.25;;;;;;;24.83;38.04;99713.97;1862403;76;28226;-47
2023/01/07 01:11:43;;;;;;;3.80;2.20;;;;;;;24.84;38.03;99710.97;1857015;76;28180;-45
2023/01/07 01:14:31;;;;;;;3.95;1.90;;;;;;;24.86;38.05;99705.22;1872784;76;28609;-48
2023/01/07 01:17:22;;;;;;;4.03;1.70;;;;;;;24.87;38.02;99711.02;1854822;75;28204;-48
2023/01/07 01:20:13;;;;;;;3.72;2.05;;;;;;;24.84;38.02;99699.98;1861609;76;28164;-46
2023/01/07 01:23:03;;;;;;;3.13;2.03;;;;;;;24.85;38.04;99699.45;1857079;76;28226;-46
2023/01/07 01:25:51;;;;;;;4.55;2.00;;;;;;;24.87;37.98;99702.78;1878617;76;28149;-46
2023/01/07 01:28:39;;;;;;;4.20;1.98;;;;;;;24.84;38.05;99699.14;1881499;76;28104;-45
2023/01/07 01:31:28;;;;;;;4.22;1.90;;;;;;;24.83;38.07;99695.58;1879791;76;28236;-45
2023/01/07 01:34:17;;;;;;;4.10;1.72;;;;;;;24.85;38.06;99692.05;1881349;76;28059;-44
2023/01/07 01:37:05;;;;;;;4.67;1.80;;;;;;;24.84;38.07;99690.36;1877411;76;28049;-46
2023/01/07 01:39:54;;;;;;;3.70;2.08;;;;;;;24.83;38.04;99690.08;1879052;76;28173;-47
2023/01/07 01:42:42;;;;;;;3.63;1.97;;;;;;;24.85;38.04;99694.79;1854036;76;28112;-50
2023/01/07 01:45:32;;;;;;;4.43;2.03;;;;;;;24.87;38.04;99689.03;1856906;76;28274;-48
2023/01/07 01:48:22;;;;;;;7.08;1.82;;;;;;;24.87;37.97;99686.30;1877884;76;28144;-50
2023/01/07 01:51:13;;;;;;;8.35;1.90;;;;;;;24.90;37.99;99681.69;1856552;76;28369;-45
2023/01/07 01:54:04;;;;;;;4.47;2.15;;;;;;;24.84;38.03;99687.61;1851400;76;28114;-48
2023/01/07 01:56:55;;;;;;;2.70;2.10;;;;;;;24.87;38.01;99693.16;1880185;76;28058;-45
2023/01/07 01:59:47;;;;;;;3.72;1.75;;;;;;;24.86;38.00;99695.06;1880256;76;28077;-45
2023/01/07 02:02:38;;;;;;;2.80;1.80;;;;;;;24.86;38.05;99691.48;1865921;76;28163;-47
2023/01/07 02:05:30;;;;;;;4.37;1.77;;;;;;;24.86;38.07;99688.20;1880278;76;28143;-45
2023/01/07 02:08:21;;;;;;;1.77;1.55;;;;;;;24.87;38.01;99689.03;1880538;76;28100;-45
2023/01/07 02:11:32;;;;;;;5.28;1.60;;;;;;;24.89;38.01;99689.63;1880239;76;28065;-47
2023/01/07 02:14:45;;;;;;;3.50;1.98;;;;;;;24.84;38.03;99693.64;1865581;76;28193;-45
2023/01/07 02:17:48;;;;;;;4.30;1.80;;;;;;;24.82;38.06;99688.94;1864062;76;28203;-45
2023/01/07 02:20:59;;;;;;;3.50;1.95;;;;;;;24.82;38.10;99678.78;1862262;76;28137;-45
2023/01/07 02:24:09;;;;;;;4.60;1.92;;;;;;;24.79;38.12;99679.27;1861997;76;28272;-45
2023/01/07 02:27:27;;;;;;;3.47;1.60;;;;;;;24.78;38.12;99672.12;1862893;76;28244;-44
2023/01/07 02:30:34;;;;;;;2.60;1.90;;;;;;;24.78;38.14;99669.38;1881455;76;28105;-47
2023/01/07 02:33:34;;;;;;;2.50;1.82;;;;;;;24.77;38.20;99666.84;1859577;76;28117;-44
2023/01/07 02:36:35;;;;;;;3.47;1.60;;;;;;;24.77;38.17;99662.73;1877331;76;28136;-44
2023/01/07 02:39:26;;;;;;;4.42;1.80;;;;;;;24.78;38.18;99657.01;1879227;76;28068;-47
2023/01/07 02:42:23;;;;;;;3.77;1.45;;;;;;;24.78;38.13;99652.05;1873111;76;28176;-45
2023/01/07 02:45:30;;;;;;;2.72;1.70;;;;;;;24.81;38.09;99648.25;1877808;76;28138;-45
2023/01/07 02:48:22;;;;;;;1.70;1.60;;;;;;;24.79;38.07;99643.55;1822848;78;28458;-44
2023/01/07 02:51:10;;;;;;;2.85;1.85;;;;;;;24.78;38.11;99642.43;1859944;76;28158;-46
2023/01/07 02:54:00;;;;;;;1.70;1.60;;;;;;;24.81;38.10;99641.95;1878186;76;28542;-45
2023/01/07 02:56:58;;;;;;;3.02;1.50;;;;;;;24.82;38.06;99632.61;1878242;76;28140;-45
2023/01/07 03:00:12;;;;;;;1.92;1.67;;;;;;;24.83;38.07;99630.17;1880349;76;28056;-45
2023/01/07 03:03:05;;;;;;;1.72;1.52;;;;;;;24.80;38.02;99621.88;1880108;76;28190;-46
2023/01/07 03:06:19;;;;;;;3.60;1.87;;;;;;;24.77;38.08;99627.85;1879841;76;28250;-46
2023/01/07 03:09:13;;;;;;;3.10;1.52;;;;;;;24.79;38.08;99628.97;1864281;76;28117;-44
2023/01/07 03:12:11;;;;;;;6.67;2.70;;;;;;;24.77;38.10;99616.02;1860371;76;31056;-49
2023/01/07 03:15:16;;;;;;;2.42;1.65;;;;;;;24.76;38.09;99616.59;1856816;76;28188;-45
2023/01/07 03:18:28;;;;;;;1.82;1.60;;;;;;;24.79;38.08;99612.48;1877870;76;28273;-46
2023/01/07 03:21:22;;;;;;;3.67;1.77;;;;;;;24.80;38.09;99615.54;1880266;76;28217;-44
2023/01/07 03:24:12;;;;;;;2.67;1.60;;;;;;;24.74;38.10;99614.03;1878637;76;28095;-46
2023/01/07 03:27:03;;;;;;;1.83;1.50;;;;;;;24.78;38.09;99614.95;1869652;76;28129;-44
2023/01/07 03:29:54;;;;;;;1.60;1.50;;;;;;;24.81;38.04;99615.84;1846158;77;28388;-47
2023/01/07 03:32:46;;;;;;;2.42;1.50;;;;;;;24.80;38.04;99616.91;1878108;76;28018;-46
2023/01/07 03:35:38;;;;;;;3.05;1.72;;;;;;;24.82;37.97;99606.50;1879165;76;28276;-46
2023/01/07 03:38:29;;;;;;;1.70;1.60;;;;;;;24.77;38.02;99603.66;1879309;75;28636;-46
2023/01/07 03:44:27;;;;;;;2.17;1.62;;;;;;;24.79;38.01;99595.47;1859920;76;28156;-44
2023/01/07 03:47:15;;;;;;;2.90;1.40;;;;;;;24.77;38.00;99590.77;1880878;75;28066;-46
2023/01/07 03:50:05;;;;;;;3.90;1.60;;;;;;;24.80;37.98;99585.31;1878940;76;28177;-44
2023/01/07 03:52:53;;;;;;;3.00;1.60;;;;;;;24.80;37.96;99583.41;1879592;76;28191;-44
2023/01/07 03:55:43;;;;;;;3.10;1.62;;;;;;;24.82;37.96;99581.78;1859470;76;28196;-47
2023/01/07 03:58:32;;;;;;;2.77;1.42;;;;;;;24.82;37.95;99577.66;1869617;76;28230;-45
2023/01/07 04:01:20;;;;;;;3.05;1.60;;;;;;;24.76;37.91;99567.63;1866935;76;28309;-48
2023/01/07 04:04:09;;;;;;;3.27;1.70;;;;;;;24.81;37.93;99571.32;1855819;76;30235;-47
2023/01/07 04:06:57;;;;;;;2.70;1.60;;;;;;;24.83;37.90;99571.09;1858430;76;28125;-46
2023/01/07 04:09:49;;;;;;;1.90;1.50;;;;;;;24.82;37.92;99562.55;1874144;76;28211;-43
2023/01/07 04:12:38;;;;;;;1.85;1.52;;;;;;;24.81;37.93;99558.95;1879888;76;28518;-48
2023/01/07 04:15:27;;;;;;;2.60;1.40;;;;;;;24.82;37.93;99564.77;1880543;76;28109;-44
2023/01/07 04:18:15;;;;;;;3.23;1.70;;;;;;;24.78;37.95;99567.72;1855518;76;28162;-45
2023/01/07 04:21:04;;;;;;;2.00;1.65;;;;;;;24.82;37.90;99563.92;1869860;76;31068;-46
2023/01/07 04:23:52;;;;;;;1.65;1.55;;;;;;;24.82;37.89;99570.79;1846032;76;28107;-46
2023/01/07 04:26:41;;;;;;;3.12;1.50;;;;;;;24.82;37.88;99568.04;1868953;76;28200;-46
2023/01/07 04:29:31;;;;;;;2.27;1.60;;;;;;;24.81;37.91;99563.64;1870661;76;28131;-48
2023/01/07 04:32:20;;;;;;;2.12;1.52;;;;;;;24.79;37.91;99564.41;1866014;75;28116;-44
2023/01/07 04:35:09;;;;;;;4.62;1.82;;;;;;;24.80;37.92;99553.72;1856548;76;28209;-46
2023/01/07 04:37:59;;;;;;;3.35;1.40;;;;;;;24.79;37.90;99556.16;1851355;76;28149;-47
2023/01/07 04:40:47;;;;;;;1.67;1.37;;;;;;;24.78;37.92;99555.36;1870146;76;28065;-48
2023/01/07 04:43:37;;;;;;;2.00;1.50;;;;;;;24.77;37.94;99558.33;1870950;76;28131;-46
2023/01/07 04:46:27;;;;;;;1.60;1.50;;;;;;;24.79;37.95;99556.16;1856542;76;28113;-45
2023/01/07 04:49:17;;;;;;;1.60;1.50;;;;;;;24.78;37.91;99551.77;1851031;76;28129;-44
2023/01/07 04:52:07;;;;;;;1.40;1.30;;;;;;;24.76;37.95;99552.52;1869955;76;28136;-44
2023/01/07 04:54:57;;;;;;;3.58;1.60;;;;;;;24.77;37.92;99539.94;1867483;76;28088;-46
2023/01/07 04:57:45;;;;;;;1.92;1.50;;;;;;;24.79;37.89;99547.92;1869148;76;28166;-46
2023/01/07 05:00:34;;;;;;;3.15;1.40;;;;;;;24.78;37.91;99542.16;1849812;76;31147;-45
2023/01/07 05:03:25;;;;;;;1.50;1.40;;;;;;;24.78;37.91;99544.89;1865484;76;28189;-49
2023/01/07 05:06:13;;;;;;;1.62;1.52;;;;;;;24.76;37.90;99552.52;1872987;76;28111;-47
2023/01/07 05:09:02;;;;;;;2.30;1.40;;;;;;;24.70;37.91;99545.56;1869310;76;28146;-46
2023/01/07 05:11:52;;;;;;;1.90;1.40;;;;;;;24.76;37.89;99558.02;1871219;76;28083;-44
2023/01/07 05:14:40;;;;;;;2.10;1.57;;;;;;;24.77;37.89;99561.08;1873722;76;28121;-48
2023/01/07 05:17:29;;;;;;;1.77;1.67;;;;;;;24.78;37.87;99558.63;1873079;76;28096;-44
2023/01/07 05:20:18;;;;;;;1.37;1.27;;;;;;;24.78;37.89;99555.89;1851675;76;28170;-44
2023/01/07 05:23:08;;;;;;;1.70;1.50;;;;;;;24.80;37.90;99548.23;1869322;76;28195;-44
2023/01/07 05:25:57;;;;;;;1.55;1.27;;;;;;;24.79;38.18;99544.64;1873140;76;28133;-44
2023/01/07 05:28:45;;;;;;;2.10;1.37;;;;;;;24.78;38.26;99542.16;1872739;76;28052;-45
2023/01/07 05:31:34;;;;;;;1.37;1.27;;;;;;;24.75;38.26;99537.95;1871658;76;28153;-45
2023/01/07 05:34:24;;;;;;;2.10;1.47;;;;;;;24.74;38.32;99539.86;1868965;76;28171;-46
2023/01/07 05:37:13;;;;;;;1.50;1.40;;;;;;;24.74;38.29;99550.00;1872528;76;28036;-45
2023/01/07 05:40:01;;;;;;;2.52;1.60;;;;;;;24.69;38.33;99539.77;1862020;76;28607;-45
2023/01/07 05:42:50;;;;;;;1.60;1.50;;;;;;;24.70;38.35;99541.44;1851200;76;28154;-44
2023/01/07 05:45:39;;;;;;;1.60;1.50;;;;;;;24.70;38.37;99548.31;1869009;76;28195;-45
2023/01/07 05:48:27;;;;;;;1.80;1.30;;;;;;;24.71;38.35;99550.52;1869233;76;28166;-44
2023/01/07 05:51:16;;;;;;;1.67;1.57;;;;;;;24.65;38.37;99539.13;1874851;76;28072;-46
2023/01/07 05:54:04;;;;;;;1.60;1.27;;;;;;;24.66;38.36;99543.02;1845540;76;28117;-44
2023/01/07 05:56:53;;;;;;;1.50;1.40;;;;;;;24.66;38.39;99534.78;1872973;76;28157;-44
2023/01/07 05:59:41;;;;;;;3.33;1.40;;;;;;;24.64;38.43;99536.91;1872897;76;28268;-45
2023/01/07 06:02:30;;;;;;;2.33;1.40;;;;;;;24.65;38.37;99537.76;1863307;76;28171;-47
2023/01/07 06:05:18;;;;;;;1.62;1.40;;;;;;;24.65;38.37;99537.76;1847721;76;28119;-48
2023/01/07 06:08:07;;;;;;;1.62;1.50;;;;;;;24.64;38.42;99534.73;1867134;76;28153;-44
2023/01/07 06:10:55;;;;;;;1.72;1.55;;;;;;;24.62;38.40;99540.45;1864507;76;28156;-45
2023/01/07 06:13:44;;;;;;;1.50;1.40;;;;;;;24.60;38.45;99542.62;1837303;77;28210;-45
2023/01/07 06:16:33;;;;;;;1.60;1.50;;;;;;;24.62;38.48;99542.39;1866679;76;28179;-44
2023/01/07 06:19:21;;;;;;;1.37;1.22;;;;;;;24.63;38.47;99538.55;1872972;75;28153;-45
2023/01/07 06:22:09;;;;;;;1.47;1.37;;;;;;;24.57;38.53;99543.13;1863840;76;28069;-45
2023/01/07 06:24:58;;;;;;;1.60;1.40;;;;;;;24.60;38.54;99543.16;1838411;77;28162;-43
2023/01/07 06:27:47;;;;;;;1.98;1.50;;;;;;;24.57;38.55;99530.77;1874526;76;28084;-44
2023/01/07 06:30:35;;;;;;;1.50;1.40;;;;;;;24.57;38.58;99534.89;1873455;76;28081;-45
2023/01/07 06:33:23;;;;;;;1.42;1.32;;;;;;;24.58;38.56;99535.70;1859492;76;28191;-45
2023/01/07 06:36:12;;;;;;;2.92;1.50;;;;;;;24.58;38.59;99543.94;1848805;76;28082;-44
2023/01/07 06:39:00;;;;;;;2.10;1.60;;;;;;;24.56;38.56;99548.32;1850157;77;28097;-45
2023/01/07 06:41:49;;;;;;;1.37;1.27;;;;;;;24.57;38.59;99551.91;1867797;76;28188;-44
2023/01/07 06:44:37;;;;;;;1.50;1.40;;;;;;;24.55;38.58;99545.27;1856410;77;28185;-44
2023/01/07 06:47:25;;;;;;;1.62;1.40;;;;;;;24.55;38.56;99548.02;1835987;77;28079;-46
2023/01/07 06:50:15;;;;;;;1.17;1.15;;;;;;;24.56;38.65;99548.32;1846460;76;28149;-46
2023/01/07 06:53:03;;;;;;;1.22;1.20;;;;;;;24.52;38.63;99551.27;1872667;76;28124;-45
2023/01/07 06:55:52;;;;;;;1.40;1.30;;;;;;;24.53;38.61;99541.09;1871444;76;28100;-47
2023/01/07 06:58:40;;;;;;;1.45;1.37;;;;;;;24.52;38.66;99544.41;1869635;76;28152;-44
2023/01/07 07:01:29;;;;;;;1.45;1.35;;;;;;;24.54;38.65;99546.36;1852467;77;28148;-46
2023/01/07 07:04:17;;;;;;;1.60;1.50;;;;;;;24.55;38.64;99544.45;1844170;77;28216;-44
2023/01/07 07:07:06;;;;;;;1.37;1.20;;;;;;;24.52;38.63;99539.45;1825214;77;28367;-43
2023/01/07 07:09:54;;;;;;;1.85;1.30;;;;;;;24.52;38.67;99538.91;1867005;76;28101;-47
2023/01/07 07:12:42;;;;;;;1.45;1.35;;;;;;;24.53;38.66;99541.09;1850309;76;28205;-44
2023/01/07 07:15:30;;;;;;;1.35;1.25;;;;;;;24.51;38.72;99536.39;1872134;76;31975;-46
2023/01/07 07:18:19;;;;;;;1.45;1.35;;;;;;;24.51;38.70;99533.11;1850040;76;28168;-47
2023/01/07 07:21:08;;;;;;;1.50;1.40;;;;;;;24.49;38.72;99523.45;1872506;76;30114;-44
2023/01/07 07:23:56;;;;;;;1.50;1.40;;;;;;;24.49;38.71;99528.41;1862851;76;28401;-48
2023/01/07 07:26:45;;;;;;;1.80;1.32;;;;;;;24.47;38.71;99530.58;1861370;76;28086;-44
2023/01/07 07:29:33;;;;;;;1.42;1.30;;;;;;;24.51;38.69;99548.22;1846379;76;28183;-48
2023/01/07 07:32:27;;;;;;;3.53;1.40;;;;;;;24.45;38.44;99543.72;1867175;76;28162;-45
2023/01/07 07:35:12;;;;;;;1.77;1.50;;;;;;;24.44;38.43;99539.30;1859033;76;28101;-44
2023/01/07 07:38:01;;;;;;;2.47;1.80;;;;;;;24.43;38.17;99532.16;1870338;76;28166;-45
2023/01/07 07:40:50;;;;;;;1.77;1.50;;;;;;;24.32;37.03;99534.39;1868579;76;28112;-44
2023/01/07 07:43:38;;;;;;;1.60;1.50;;;;;;;24.28;37.33;99529.10;1872684;76;28177;-44
2023/01/07 07:46:27;;;;;;;2.42;1.87;;;;;;;24.38;37.09;99529.84;1843851;77;28121;-43
2023/01/07 07:49:15;;;;;;;2.10;1.85;;;;;;;24.40;37.04;99534.54;1869054;76;28029;-48
2023/01/07 07:52:05;;;;;;;1.95;1.85;;;;;;;24.40;37.00;99529.89;1859316;76;28145;-44
2023/01/07 07:54:53;;;;;;;2.12;1.62;;;;;;;24.41;36.97;99532.91;1873045;76;28080;-45
2023/01/07 07:57:42;;;;;;;1.80;1.70;;;;;;;24.42;36.76;99530.47;1856594;77;28145;-47
2023/01/07 08:00:30;;;;;;;2.00;1.80;;;;;;;24.46;36.73;99530.27;1837676;77;28178;-45
2023/01/07 08:03:19;;;;;;;2.10;1.83;;;;;;;24.45;36.71;99531.90;1871824;76;28127;-45
2023/01/07 08:06:08;;;;;;;1.73;1.63;;;;;;;24.47;36.64;99539.34;1873359;76;28475;-46
2023/01/07 08:08:56;;;;;;;4.30;2.05;;;;;;;24.49;36.60;99534.44;1871807;76;28174;-45
2023/01/07 08:11:44;;;;;;;2.12;1.75;;;;;;;24.39;35.80;99529.58;1854802;76;28072;-50
2023/01/07 08:14:32;;;;;;;2.02;1.90;;;;;;;24.35;35.27;99528.95;1871659;76;28210;-48
2023/01/07 08:17:20;;;;;;;4.70;2.00;;;;;;;24.28;35.20;99527.73;1869497;76;28162;-45
2023/01/07 08:20:11;;;;;;;2.00;1.90;;;;;;;24.26;35.05;99532.63;1861053;76;28113;-46
2023/01/07 08:23:04;;;;;;;1.77;1.67;;;;;;;24.27;35.21;99527.98;1854883;76;28188;-45
2023/01/07 08:25:52;;;;;;;1.77;1.67;;;;;;;24.28;35.42;99537.87;1862817;76;28058;-46
2023/01/07 08:28:40;;;;;;;2.42;1.72;;;;;;;24.24;35.46;99529.30;1856717;76;28147;-45
2023/01/07 08:31:29;;;;;;;3.30;1.70;;;;;;;24.25;35.46;99530.95;1850433;76;28129;-44
2023/01/07 08:34:18;;;;;;;2.08;1.52;;;;;;;24.06;35.91;99528.13;1868331;76;28128;-45
2023/01/07 08:37:06;;;;;;;1.53;1.43;;;;;;;23.86;36.39;99518.88;1863121;76;28121;-43
2023/01/07 08:39:54;;;;;;;1.55;1.45;;;;;;;23.72;36.83;99525.71;1873581;76;28027;-47
2023/01/07 08:42:42;;;;;;;1.57;1.47;;;;;;;23.65;37.12;99529.65;1849500;76;28103;-44
2023/01/07 08:45:32;;;;;;;2.90;1.80;;;;;;;23.61;37.32;99520.24;1851229;77;28177;-44
2023/01/07 08:48:21;;;;;;;2.35;1.80;;;;;;;23.54;37.64;99519.00;1872784;76;28120;-45
2023/01/07 08:51:09;;;;;;;1.98;1.60;;;;;;;23.51;38.60;99517.27;1871662;76;28163;-44
2023/01/07 08:53:58;;;;;;;1.95;1.52;;;;;;;23.60;39.53;99516.66;1860140;76;28111;-47
2023/01/07 08:56:46;;;;;;;3.40;1.90;;;;;;;23.70;39.61;99527.02;1861709;76;28078;-45
2023/01/07 08:59:34;;;;;;;2.90;1.40;;;;;;;23.75;39.64;99524.39;1865782;76;28120;-44
2023/01/07 09:02:23;;;;;;;1.70;1.60;;;;;;;23.83;39.61;99526.75;1868567;76;28184;-44
2023/01/07 09:05:11;;;;;;;2.05;1.70;;;;;;;23.85;39.50;99515.02;1862706;76;28195;-45
2023/01/07 09:08:01;;;;;;;1.60;1.50;;;;;;;23.86;39.57;99513.92;1862219;76;28108;-44
2023/01/07 09:10:49;;;;;;;3.65;1.80;;;;;;;23.90;39.57;99517.31;1837285;77;28264;-46
2023/01/07 09:13:38;;;;;;;2.80;1.70;;;;;;;23.90;39.56;99521.43;1838627;77;28232;-43
2023/01/07 09:16:26;;;;;;;2.60;1.50;;;;;;;23.91;39.63;99518.16;1868618;76;28174;-44
2023/01/07 09:19:15;;;;;;;1.60;1.50;;;;;;;23.92;39.62;99521.20;1869759;76;28209;-48
2023/01/07 09:22:03;;;;;;;2.20;1.70;;;;;;;23.93;39.59;99518.73;1853785;76;28166;-45
2023/01/07 09:24:51;;;;;;;2.58;1.70;;;;;;;23.95;39.59;99517.42;1836972;77;28126;-44
2023/01/07 09:27:41;;;;;;;1.95;1.40;;;;;;;23.92;39.66;99512.98;1855330;77;28192;-47
2023/01/07 09:30:29;;;;;;;1.75;1.60;;;;;;;23.96;39.62;99514.15;1855238;76;28236;-46
2023/01/07 09:33:18;;;;;;;1.50;1.40;;;;;;;23.97;39.61;99518.02;1871693;76;28113;-43
2023/01/07 09:36:07;;;;;;;1.77;1.47;;;;;;;23.98;39.58;99516.11;1870672;76;28087;-46
2023/01/07 09:38:55;;;;;;;1.50;1.40;;;;;;;23.97;39.62;99518.55;1863155;76;28133;-45
2023/01/07 09:41:50;;;;;;;1.42;1.40;;;;;;;23.95;39.63;99509.19;1868570;76;28104;-45
2023/01/07 09:44:44;;;;;;;1.52;1.42;;;;;;;23.95;39.62;99513.31;1852831;76;28139;-43
2023/01/07 09:47:36;;;;;;;1.50;1.40;;;;;;;23.99;39.62;99509.55;1868211;76;29170;-44
2023/01/07 09:50:44;;;;;;;1.47;1.40;;;;;;;23.97;39.62;99510.31;1853040;77;28137;-45
2023/01/07 09:53:44;;;;;;;1.57;1.47;;;;;;;24.01;39.63;99512.89;1862948;76;28174;-46
2023/01/07 09:56:34;;;;;;;1.62;1.30;;;;;;;24.00;39.58;99515.32;1862842;76;28072;-44
2023/01/07 09:59:23;;;;;;;1.60;1.50;;;;;;;23.98;39.66;99514.73;1852268;77;28157;-44
2023/01/07 10:02:34;;;;;;;2.08;1.50;;;;;;;23.98;39.65;99505.13;1837149;76;28283;-43
2023/01/07 10:05:37;;;;;;;1.60;1.50;;;;;;;24.00;39.60;99505.72;1837153;77;28232;-44
2023/01/07 10:08:38;;;;;;;2.35;1.50;;;;;;;24.00;39.60;99494.74;1846630;76;28168;-44
2023/01/07 10:11:38;;;;;;;3.00;1.50;;;;;;;23.95;39.63;99496.84;1813497;76;28159;-46
2023/01/07 10:14:38;;;;;;;1.80;1.50;;;;;;;23.95;39.67;99493.27;1856707;77;28238;-43
2023/01/07 10:18:03;;;;;;;1.42;1.35;;;;;;;23.95;39.68;99495.47;1873703;76;28672;-44
2023/01/07 10:21:11;;;;;;;1.57;1.47;;;;;;;23.94;39.69;99485.56;1861622;76;28164;-43
2023/01/07 10:24:09;;;;;;;2.58;1.40;;;;;;;23.93;39.73;99483.08;1872830;76;28081;-43
2023/01/07 10:26:59;;;;;;;1.45;1.35;;;;;;;23.94;39.73;99477.89;1860414;76;28194;-45
2023/01/07 10:29:54;;;;;;;1.60;1.50;;;;;;;23.96;39.71;99472.99;1850622;76;31985;-43
2023/01/07 10:32:44;;;;;;;1.45;1.25;;;;;;;23.97;39.71;99463.66;1868665;76;28105;-48
2023/01/07 10:35:35;;;;;;;1.70;1.60;;;;;;;23.95;39.66;99458.44;1868901;76;28175;-46
2023/01/07 10:38:25;;;;;;;1.50;1.40;;;;;;;23.99;39.60;99454.11;1871031;76;28128;-49
2023/01/07 10:41:21;;;;;;;1.67;1.40;;;;;;;23.99;39.61;99447.82;1839263;77;28154;-45
2023/01/07 10:44:15;;;;;;;1.85;1.30;;;;;;;23.97;39.61;99445.30;1859139;76;28083;-46
2023/01/07 10:47:22;;;;;;;1.40;1.30;;;;;;;23.99;39.61;99431.36;1864436;76;38438;-44
2023/01/07 10:50:36;;;;;;;2.10;1.47;;;;;;;23.98;39.59;99420.91;1862846;76;28078;-44
2023/01/07 10:53:37;;;;;;;1.47;1.40;;;;;;;23.99;39.60;99421.75;1869346;76;28217;-48
2023/01/07 10:56:43;;;;;;;1.72;1.30;;;;;;;23.99;39.51;99415.70;1874322;76;28092;-46
2023/01/07 10:59:32;;;;;;;1.65;1.52;;;;;;;24.02;39.55;99413.01;1858202;76;28223;-49
2023/01/07 11:02:29;;;;;;;1.57;1.50;;;;;;;24.00;39.54;99409.15;1870662;76;28092;-45
2023/01/07 11:05:13;;;;;;;1.55;1.42;;;;;;;24.02;39.48;99398.76;1862810;76;28301;-46
2023/01/07 11:08:03;;;;;;;2.05;1.30;;;;;;;24.05;39.44;99394.69;1842120;76;28175;-44
2023/01/07 11:10:52;;;;;;;1.37;1.30;;;;;;;24.05;39.41;99387.30;1835362;77;28198;-44
2023/01/07 11:13:43;;;;;;;1.50;1.40;;;;;;;24.05;39.42;99383.72;1851886;76;28182;-46
2023/01/07 11:16:37;;;;;;;1.20;1.20;;;;;;;24.06;39.40;99377.19;1861754;76;28094;-44
2023/01/07 11:19:43;;;;;;;1.40;1.30;;;;;;;24.05;39.40;99374.11;1872787;76;28179;-46
2023/01/07 11:22:35;;;;;;;1.30;1.20;;;;;;;24.05;39.35;99365.34;1871953;76;28081;-43
2023/01/07 11:25:29;;;;;;;1.50;1.40;;;;;;;24.03;39.43;99358.44;1871357;75;28086;-43
2023/01/07 11:28:23;;;;;;;1.42;1.32;;;;;;;24.01;39.46;99355.92;1849375;76;28092;-44
2023/01/07 11:31:12;;;;;;;2.98;1.35;;;;;;;24.01;39.43;99347.69;1840644;76;28207;-46
2023/01/07 11:34:00;;;;;;;1.25;1.25;;;;;;;24.03;39.38;99342.81;1863696;76;28681;-45
2023/01/07 11:36:49;;;;;;;1.30;1.30;;;;;;;24.04;39.39;99337.59;1870895;76;28402;-44
2023/01/07 11:39:37;;;;;;;1.73;1.60;;;;;;;24.05;39.32;99339.80;1852391;76;28090;-44
2023/01/07 11:42:37;;;;;;;1.40;1.30;;;;;;;24.04;39.33;99333.48;1868609;76;28184;-44
2023/01/07 11:45:38;;;;;;;1.60;1.27;;;;;;;24.03;39.33;99324.97;1846228;76;28084;-45
2023/01/07 11:48:32;;;;;;;1.33;1.23;;;;;;;24.04;39.33;99325.25;1869236;76;28172;-44
2023/01/07 11:51:23;;;;;;;1.40;1.30;;;;;;;24.04;39.31;99318.92;1863562;76;28297;-43
2023/01/07 11:54:22;;;;;;;1.02;1.02;;;;;;;24.05;39.30;99309.63;1850044;76;28215;-44
2023/01/07 11:57:24;;;;;;;2.00;1.20;;;;;;;24.05;39.29;99298.12;1851026;76;28280;-43
2023/01/07 12:00:16;;;;;;;1.57;1.47;;;;;;;24.04;39.33;99292.86;1865078;76;28089;-45
2023/01/07 12:03:13;;;;;;;1.05;1.05;;;;;;;24.07;39.31;99286.07;1785274;78;28404;-44
2023/01/07 12:06:05;;;;;;;1.30;1.20;;;;;;;24.03;39.29;99276.95;1822069;78;28202;-44
2023/01/07 12:09:15;;;;;;;1.30;1.20;;;;;;;24.03;39.31;99276.12;1859496;76;28171;-46
2023/01/07 12:12:33;;;;;;;2.10;1.30;;;;;;;24.04;39.25;99267.63;1851226;76;28164;-46
2023/01/07 12:15:33;;;;;;;1.22;1.12;;;;;;;24.01;39.29;99259.08;1851769;76;28247;-46
2023/01/07 12:18:57;;;;;;;1.60;1.50;;;;;;;24.00;39.32;99251.91;1848914;76;28224;-47
2023/01/07 12:21:54;;;;;;;1.90;1.50;;;;;;;24.02;39.36;99243.73;1837326;77;28267;-43
2023/01/07 12:25:02;;;;;;;1.70;1.60;;;;;;;24.02;39.33;99235.49;1852941;76;28210;-48
2023/01/07 12:28:11;;;;;;;1.50;1.40;;;;;;;24.00;39.34;99232.70;1851868;76;28680;-44
2023/01/07 12:31:03;;;;;;;1.30;1.20;;;;;;;23.99;39.36;99218.72;1849876;76;28201;-43
2023/01/07 12:34:09;;;;;;;1.62;1.50;;;;;;;24.01;39.35;99215.17;1846323;76;28199;-46
2023/01/07 12:37:17;;;;;;;1.55;1.45;;;;;;;24.03;39.26;99208.36;1868636;76;28184;-43
2023/01/07 12:40:11;;;;;;;1.50;1.40;;;;;;;24.03;39.21;99206.98;1874081;76;28216;-45
2023/01/07 12:43:03;;;;;;;1.72;1.47;;;;;;;24.03;39.27;99197.92;1868983;76;28018;-50
2023/01/07 12:46:04;;;;;;;1.60;1.50;;;;;;;24.04;39.10;99196.81;1869114;76;28207;-44
2023/01/07 12:48:55;;;;;;;1.42;1.32;;;;;;;24.05;39.02;99186.98;1867522;76;28120;-44
2023/01/07 12:51:46;;;;;;;1.50;1.40;;;;;;;24.05;38.90;99186.14;1794399;78;28374;-44
2023/01/07 12:54:58;;;;;;;1.65;1.50;;;;;;;24.06;38.84;99191.97;1850766;76;28101;-45
2023/01/07 12:57:54;;;;;;;1.50;1.40;;;;;;;24.06;38.78;99185.11;1848817;76;28103;-46
2023/01/07 13:01:01;;;;;;;1.20;1.20;;;;;;;24.06;38.67;99176.88;1864718;76;28109;-43
2023/01/07 13:04:10;;;;;;;1.57;1.47;;;;;;;24.10;38.62;99173.08;1870813;76;28063;-43
2023/01/07 13:07:22;;;;;;;1.50;1.35;;;;;;;24.08;38.57;99163.73;1870104;76;28147;-46
2023/01/07 13:10:14;;;;;;;1.50;1.40;;;;;;;24.07;38.58;99148.34;1873209;76;28269;-44
2023/01/07 13:13:18;;;;;;;1.52;1.42;;;;;;;24.07;38.60;99161.22;1863438;76;28131;-48
2023/01/07 13:16:08;;;;;;;1.40;1.30;;;;;;;24.10;38.56;99153.33;1872437;76;28143;-45
2023/01/07 13:18:56;;;;;;;1.47;1.37;;;;;;;24.14;38.48;99149.52;1871260;76;28081;-48
2023/01/07 13:21:47;;;;;;;1.60;1.50;;;;;;;24.14;38.45;99144.03;1870853;76;28147;-43
2023/01/07 13:24:41;;;;;;;1.67;1.57;;;;;;;24.16;38.38;99147.35;1870221;76;28158;-45
2023/01/07 13:27:35;;;;;;;1.60;1.50;;;;;;;24.17;38.35;99143.00;1865256;76;28295;-43
2023/01/07 13:30:33;;;;;;;1.65;1.52;;;;;;;24.12;38.08;99137.44;1849869;77;28107;-45
2023/01/07 13:33:30;;;;;;;1.67;1.57;;;;;;;24.11;37.79;99140.45;1831738;76;28121;-45
2023/01/07 13:36:36;;;;;;;1.60;1.40;;;;;;;24.08;37.67;99131.34;1842185;77;28114;-47